Time;durP1;ratioP1;P1;durP2;ratioP2;P2;SDS_P1;SDS_P2;PMS_P1;PMS_P2;Temp;Humidity;BMP_temperature;BMP_pressure;BME280_temperature;BME280_humidity;BME280_pressure;Samples;Min_cycle;Max_cycle;Signal;HPM_P1;HPM_P2
2021/01/01 00:00:30;;;;;;;83.43;60.40;;;5.90;82.70;;;;;;5048614;28;20120;-82
2021/01/01 00:02:59;;;;;;;74.65;56.08;;;5.90;82.70;;;;;;5035177;28;20025;-78
2021/01/01 00:05:32;;;;;;;82.80;61.58;;;5.80;82.70;;;;;;5031698;28;20049;-77
2021/01/01 00:07:57;;;;;;;89.57;65.35;;;5.80;82.70;;;;;;5046220;28;20473;-78
2021/01/01 00:10:24;;;;;;;91.50;64.60;;;5.80;82.70;;;;;;5042112;28;20072;-77
2021/01/01 00:12:49;;;;;;;82.95;62.45;;;5.80;82.70;;;;;;5024585;28;20086;-78
2021/01/01 00:15:15;;;;;;;88.20;65.00;;;5.80;82.70;;;;;;5027873;28;20037;-78
2021/01/01 00:17:41;;;;;;;91.82;64.18;;;5.80;82.70;;;;;;5037868;28;20517;-77
2021/01/01 00:20:09;;;;;;;83.13;59.28;;;5.80;82.70;;;;;;5032709;28;20030;-77
2021/01/01 00:22:36;;;;;;;82.15;60.83;;;5.80;82.70;;;;;;5039121;28;20045;-77
2021/01/01 00:25:02;;;;;;;90.10;65.40;;;5.80;82.70;;;;;;5041999;28;20162;-77
2021/01/01 00:27:32;;;;;;;94.50;66.93;;;5.80;82.80;;;;;;5039127;28;20056;-77
2021/01/01 00:29:58;;;;;;;91.80;63.65;;;5.70;82.70;;;;;;5023907;28;20032;-78
2021/01/01 00:32:24;;;;;;;94.93;68.10;;;5.70;82.70;;;;;;5046641;28;20439;-77
2021/01/01 00:34:50;;;;;;;94.45;66.13;;;5.70;82.70;;;;;;5044342;28;20047;-77
2021/01/01 00:37:16;;;;;;;101.53;68.95;;;5.70;82.70;;;;;;5047243;28;20124;-77
2021/01/01 00:39:42;;;;;;;95.35;65.18;;;5.70;82.70;;;;;;5035678;28;20112;-76
2021/01/01 00:42:08;;;;;;;89.32;62.72;;;5.70;82.70;;;;;;5042726;28;20075;-77
2021/01/01 00:44:33;;;;;;;89.18;61.08;;;5.70;82.70;;;;;;5045375;28;20036;-79
2021/01/01 00:47:00;;;;;;;88.40;63.53;;;5.70;82.70;;;;;;5031887;28;20576;-77
2021/01/01 00:49:26;;;;;;;90.30;64.47;;;5.60;82.70;;;;;;5009753;28;20124;-78
2021/01/01 00:51:52;;;;;;;92.03;62.55;;;5.60;82.70;;;;;;5045663;28;20029;-77
2021/01/01 00:54:17;;;;;;;89.00;62.20;;;5.60;82.70;;;;;;5048928;28;20017;-77
2021/01/01 00:56:43;;;;;;;87.75;59.00;;;5.60;82.70;;;;;;5046992;28;20029;-76
2021/01/01 00:59:09;;;;;;;95.03;63.42;;;5.60;82.70;;;;;;5049645;28;20512;-77
2021/01/01 01:01:35;;;;;;;97.25;66.47;;;5.60;82.70;;;;;;5037600;28;20124;-79
2021/01/01 01:04:01;;;;;;;91.78;64.72;;;5.50;82.70;;;;;;5021308;28;20032;-76
2021/01/01 01:06:28;;;;;;;99.75;69.40;;;5.60;82.70;;;;;;5032393;28;20017;-76
2021/01/01 01:08:54;;;;;;;99.38;65.63;;;5.50;82.70;;;;;;5042445;28;20029;-77
2021/01/01 01:11:28;;;;;;;88.50;63.38;;;5.50;82.70;;;;;;5042395;28;20146;-76
2021/01/01 01:13:55;;;;;;;94.03;62.88;;;5.50;82.70;;;;;;5030937;28;20033;-76
2021/01/01 01:16:25;;;;;;;93.15;63.08;;;5.50;82.70;;;;;;5048101;28;20029;-77
2021/01/01 01:18:51;;;;;;;97.60;66.38;;;5.50;82.70;;;;;;5040485;28;20029;-76
2021/01/01 01:21:17;;;;;;;94.22;65.25;;;5.50;82.70;;;;;;5036122;28;20037;-77
2021/01/01 01:23:43;;;;;;;91.90;65.60;;;5.50;82.70;;;;;;5042956;28;20033;-77
2021/01/01 01:26:09;;;;;;;91.22;65.43;;;5.50;82.70;;;;;;5040434;28;20117;-76
2021/01/01 01:28:34;;;;;;;91.70;63.60;;;5.50;82.70;;;;;;5039317;28;20473;-76
2021/01/01 01:31:00;;;;;;;94.78;64.90;;;5.40;82.70;;;;;;5031901;28;20063;-76
2021/01/01 01:33:26;;;;;;;84.82;60.33;;;5.50;82.80;;;;;;5047682;28;20611;-77
2021/01/01 01:35:52;;;;;;;89.20;61.08;;;5.40;82.70;;;;;;5027271;28;20496;-76
2021/01/01 01:38:18;;;;;;;87.18;60.28;;;5.40;82.70;;;;;;5035729;28;20029;-76
2021/01/01 01:40:44;;;;;;;93.45;62.80;;;5.40;82.70;;;;;;5027306;28;20034;-76
2021/01/01 01:43:09;;;;;;;87.32;61.50;;;5.40;82.70;;;;;;5045600;28;20033;-76
2021/01/01 01:45:35;;;;;;;87.70;60.55;;;5.40;82.70;;;;;;5028092;28;20053;-76
2021/01/01 01:48:03;;;;;;;82.35;57.20;;;5.40;82.70;;;;;;5026129;28;20461;-76
2021/01/01 01:50:30;;;;;;;82.65;57.22;;;5.40;82.70;;;;;;5045856;28;20374;-76
2021/01/01 01:52:57;;;;;;;87.97;57.70;;;5.40;82.70;;;;;;5037271;28;20036;-75
2021/01/01 01:55:22;;;;;;;74.15;53.85;;;5.40;82.70;;;;;;5017792;28;20029;-76
2021/01/01 01:57:49;;;;;;;81.43;55.38;;;5.40;82.70;;;;;;5038788;28;20031;-76
2021/01/01 02:02:59;;;;;;;69.65;48.83;;;5.30;82.70;;;;;;5033458;28;20052;-76
2021/01/01 02:05:27;;;;;;;68.35;46.40;;;5.30;82.60;;;;;;5001557;28;20069;-76
2021/01/01 02:07:53;;;;;;;72.63;51.13;;;5.30;82.70;;;;;;5038519;28;20097;-76
2021/01/01 02:10:19;;;;;;;72.45;49.33;;;5.30;82.70;;;;;;5040349;28;20101;-75
2021/01/01 02:12:46;;;;;;;70.70;48.20;;;5.30;82.70;;;;;;5049445;28;20048;-76
2021/01/01 02:15:12;;;;;;;74.50;50.92;;;5.20;82.70;;;;;;5035682;28;20029;-76
2021/01/01 02:17:38;;;;;;;71.78;48.35;;;5.20;82.70;;;;;;5015839;28;20065;-77
2021/01/01 02:20:08;;;;;;;66.95;47.05;;;5.20;82.70;;;;;;5037850;28;20029;-76
2021/01/01 02:22:38;;;;;;;67.75;47.55;;;5.20;82.70;;;;;;5046476;28;20485;-77
2021/01/01 02:25:07;;;;;;;67.78;46.33;;;5.20;82.70;;;;;;5011096;28;20652;-76
2021/01/01 02:27:32;;;;;;;66.90;46.55;;;5.20;82.70;;;;;;5039688;28;20032;-76
2021/01/01 02:29:58;;;;;;;73.05;49.13;;;5.10;82.60;;;;;;5031934;28;20037;-76
2021/01/01 02:32:24;;;;;;;67.05;46.03;;;5.10;82.70;;;;;;5016049;28;20061;-76
2021/01/01 02:34:50;;;;;;;62.58;42.28;;;5.10;82.70;;;;;;5026633;28;20030;-76
2021/01/01 02:37:15;;;;;;;58.30;42.55;;;5.10;82.60;;;;;;5033128;28;20057;-76
2021/01/01 02:39:42;;;;;;;60.47;43.17;;;5.10;82.70;;;;;;5045172;28;20029;-76
2021/01/01 02:42:08;;;;;;;66.10;43.83;;;5.10;82.70;;;;;;5036347;28;20037;-77
2021/01/01 02:44:33;;;;;;;59.17;41.38;;;5.10;82.70;;;;;;5043638;28;20048;-76
2021/01/01 02:47:03;;;;;;;65.45;44.08;;;5.00;82.60;;;;;;5048017;28;20064;-76
2021/01/01 02:49:33;;;;;;;61.00;42.60;;;5.00;82.70;;;;;;5048265;28;20037;-76
2021/01/01 02:52:00;;;;;;;64.40;45.15;;;5.00;82.70;;;;;;5033504;28;20037;-76
2021/01/01 02:54:26;;;;;;;64.25;41.17;;;5.00;82.70;;;;;;5039535;28;20017;-76
2021/01/01 02:56:51;;;;;;;62.00;42.65;;;5.00;82.70;;;;;;5049742;28;20079;-77
2021/01/01 02:59:18;;;;;;;59.50;42.42;;;5.00;82.70;;;;;;4997358;28;20021;-76
2021/01/01 03:01:44;;;;;;;60.53;42.45;;;4.90;82.70;;;;;;5041197;28;20366;-76
2021/01/01 03:04:10;;;;;;;59.80;41.55;;;4.90;82.70;;;;;;5026276;28;20063;-76
2021/01/01 03:06:36;;;;;;;60.25;41.75;;;4.90;82.70;;;;;;5031278;28;20059;-76
2021/01/01 03:09:03;;;;;;;59.72;41.55;;;4.90;82.70;;;;;;5029699;28;20025;-77
2021/01/01 03:11:29;;;;;;;58.83;40.65;;;4.90;82.70;;;;;;5037310;28;20033;-76
2021/01/01 03:13:55;;;;;;;58.97;39.20;;;4.90;82.70;;;;;;5039508;28;20059;-77
2021/01/01 03:16:21;;;;;;;61.38;40.78;;;4.80;82.60;;;;;;5046428;28;20031;-77
2021/01/01 03:18:46;;;;;;;64.82;43.17;;;4.80;82.60;;;;;;5049585;28;20075;-78
2021/01/01 03:21:12;;;;;;;57.17;38.40;;;4.80;82.60;;;;;;5032662;28;20033;-78
2021/01/01 03:23:38;;;;;;;64.63;43.03;;;4.80;82.70;;;;;;5040295;28;20029;-76
2021/01/01 03:26:03;;;;;;;57.90;41.58;;;4.80;82.60;;;;;;5041003;28;20029;-76
2021/01/01 03:28:29;;;;;;;63.20;42.72;;;4.80;82.60;;;;;;5037022;28;20038;-76
2021/01/01 03:30:55;;;;;;;57.20;39.90;;;4.70;82.60;;;;;;5029034;28;20424;-76
2021/01/01 03:33:21;;;;;;;58.55;41.28;;;4.70;82.60;;;;;;5049968;28;20120;-76
2021/01/01 03:35:46;;;;;;;54.75;38.58;;;4.70;82.60;;;;;;5028293;28;20449;-76
2021/01/01 03:38:12;;;;;;;61.90;41.58;;;4.70;82.60;;;;;;5039512;28;20025;-76
2021/01/01 03:40:38;;;;;;;58.55;39.65;;;4.70;82.60;;;;;;5012938;28;20059;-76
2021/01/01 03:43:04;;;;;;;57.28;39.70;;;4.70;82.60;;;;;;5016417;28;20091;-76
2021/01/01 03:45:29;;;;;;;56.88;39.03;;;4.70;82.60;;;;;;5037842;28;20057;-76
2021/01/01 03:47:55;;;;;;;63.22;42.97;;;4.60;82.50;;;;;;5027997;28;20036;-77
2021/01/01 03:50:21;;;;;;;60.88;39.88;;;4.60;82.50;;;;;;5042138;28;20067;-78
2021/01/01 03:52:46;;;;;;;58.67;40.53;;;4.60;82.60;;;;;;5047504;28;20382;-76
2021/01/01 03:55:12;;;;;;;57.28;39.38;;;4.60;82.60;;;;;;5027046;28;20037;-75
2021/01/01 03:57:38;;;;;;;59.58;40.05;;;4.60;82.60;;;;;;5024423;28;20037;-76
2021/01/01 04:00:05;;;;;;;60.25;40.25;;;4.60;82.60;;;;;;5025298;28;20053;-75
2021/01/01 04:02:37;;;;;;;61.83;41.50;;;4.60;82.60;;;;;;5042381;28;20036;-76
2021/01/01 04:05:03;;;;;;;63.58;42.70;;;4.60;82.60;;;;;;5042619;28;20043;-75
2021/01/01 04:07:29;;;;;;;59.67;40.58;;;4.50;82.50;;;;;;5050013;28;20496;-76
2021/01/01 04:09:55;;;;;;;57.92;38.58;;;4.50;82.60;;;;;;5004447;28;20025;-75
2021/01/01 04:12:20;;;;;;;65.15;41.90;;;4.50;82.50;;;;;;5015454;28;20040;-75
2021/01/01 04:14:46;;;;;;;63.65;41.15;;;4.50;82.60;;;;;;5020929;28;20029;-78
2021/01/01 04:17:12;;;;;;;57.72;39.58;;;4.50;82.60;;;;;;5023211;28;20025;-76
2021/01/01 04:19:38;;;;;;;56.35;39.47;;;4.50;82.60;;;;;;5034612;28;20076;-76
2021/01/01 04:22:03;;;;;;;63.75;41.28;;;4.50;82.60;;;;;;5012181;28;20037;-76
2021/01/01 04:24:29;;;;;;;58.28;38.83;;;4.40;82.50;;;;;;5033388;28;20029;-77
2021/01/01 04:26:55;;;;;;;60.47;39.00;;;4.40;82.50;;;;;;5014840;28;20029;-77
2021/01/01 04:29:20;;;;;;;64.35;42.72;;;4.50;82.60;;;;;;5043575;28;20013;-77
2021/01/01 04:31:47;;;;;;;64.28;42.50;;;4.40;82.50;;;;;;5029454;28;20033;-76
2021/01/01 04:34:13;;;;;;;60.65;39.40;;;4.40;82.50;;;;;;5039214;28;20037;-76
2021/01/01 04:36:38;;;;;;;58.63;39.28;;;4.40;82.50;;;;;;5032231;28;20037;-76
2021/01/01 04:39:05;;;;;;;55.40;38.38;;;4.40;82.50;;;;;;5047052;28;20389;-76
2021/01/01 04:41:32;;;;;;;56.30;38.85;;;4.40;82.50;;;;;;4988191;28;20033;-76
2021/01/01 04:43:58;;;;;;;60.35;40.53;;;4.30;82.50;;;;;;5031331;28;20429;-76
2021/01/01 04:46:24;;;;;;;59.83;39.08;;;4.40;82.50;;;;;;5026056;28;20037;-76
2021/01/01 04:48:51;;;;;;;58.63;38.45;;;4.40;82.50;;;;;;5044732;28;20136;-76
2021/01/01 04:51:16;;;;;;;55.60;37.08;;;4.40;82.50;;;;;;5045561;28;20040;-77
2021/01/01 04:53:42;;;;;;;57.35;38.45;;;4.30;82.50;;;;;;5012286;28;20029;-77
2021/01/01 04:56:09;;;;;;;55.72;37.95;;;4.30;82.50;;;;;;5044792;28;20037;-77
2021/01/01 04:58:35;;;;;;;56.58;38.08;;;4.30;82.50;;;;;;5029576;28;20037;-76
2021/01/01 05:01:02;;;;;;;53.17;35.45;;;4.40;83.20;;;;;;5041446;28;20030;-77
2021/01/01 05:03:28;;;;;;;52.13;36.88;;;4.30;82.50;;;;;;5040115;28;20056;-75
2021/01/01 05:05:54;;;;;;;57.20;37.50;;;4.30;82.50;;;;;;5027405;28;20107;-76
2021/01/01 05:08:21;;;;;;;56.60;37.50;;;4.30;82.50;;;;;;5041217;28;20033;-76
2021/01/01 05:10:48;;;;;;;56.17;37.42;;;4.30;82.50;;;;;;5049240;28;20037;-76
2021/01/01 05:13:16;;;;;;;51.67;35.95;;;4.30;82.50;;;;;;5023062;28;20029;-76
2021/01/01 05:15:42;;;;;;;52.55;35.15;;;4.30;82.50;;;;;;5046652;28;20052;-76
2021/01/01 05:18:26;;;;;;;51.05;35.10;;;4.30;82.50;;;;;;5045479;28;20521;-77
2021/01/01 05:20:57;;;;;;;51.92;34.63;;;4.30;82.50;;;;;;5051720;28;20036;-76
2021/01/01 05:23:23;;;;;;;56.22;36.20;;;4.30;82.50;;;;;;5039256;28;20037;-75
2021/01/01 05:26:11;;;;;;;58.20;36.53;;;4.30;82.40;;;;;;5040249;28;20033;-76
2021/01/01 05:28:49;;;;;;;49.10;32.88;;;4.30;82.60;;;;;;5051982;28;20043;-76
2021/01/01 05:31:38;;;;;;;51.88;34.63;;;4.30;82.50;;;;;;5024269;28;20171;-76
2021/01/01 05:34:18;;;;;;;45.05;30.90;;;4.30;82.50;;;;;;5039642;28;20508;-77
2021/01/01 05:36:46;;;;;;;52.35;33.90;;;4.30;82.40;;;;;;5049859;28;20025;-76
2021/01/01 05:39:18;;;;;;;44.92;31.90;;;4.30;82.40;;;;;;5044525;28;20025;-76
2021/01/01 05:41:46;;;;;;;50.85;33.38;;;4.30;82.40;;;;;;5047472;28;20033;-76
2021/01/01 05:44:25;;;;;;;45.00;31.20;;;4.30;82.40;;;;;;5051820;28;20405;-75
2021/01/01 05:46:56;;;;;;;46.55;32.67;;;4.20;82.40;;;;;;5047517;28;20067;-76
2021/01/01 05:49:24;;;;;;;49.67;33.53;;;4.20;82.40;;;;;;5043734;28;20033;-77
2021/01/01 05:52:23;;;;;;;48.10;31.98;;;4.20;82.40;;;;;;5038071;28;20032;-77
2021/01/01 05:54:57;;;;;;;46.72;30.85;;;4.20;82.60;;;;;;5015647;28;20040;-77
2021/01/01 05:57:36;;;;;;;45.95;31.42;;;4.20;82.30;;;;;;5049815;28;20484;-77
2021/01/01 06:00:05;;;;;;;43.53;29.10;;;4.20;82.40;;;;;;5033748;28;20025;-76
2021/01/01 06:02:40;;;;;;;49.67;33.90;;;4.20;82.40;;;;;;5047434;28;20376;-76
2021/01/01 06:05:10;;;;;;;50.03;31.80;;;4.20;82.40;;;;;;5046110;28;20071;-77
2021/01/01 06:07:37;;;;;;;46.20;31.65;;;4.20;82.40;;;;;;5027431;28;20029;-75
2021/01/01 06:10:05;;;;;;;49.13;31.30;;;4.20;82.40;;;;;;5051549;28;20055;-76
2021/01/01 06:12:34;;;;;;;49.60;31.98;;;4.20;82.40;;;;;;5039637;28;20033;-75
2021/01/01 06:15:00;;;;;;;44.00;30.20;;;4.20;82.40;;;;;;5034118;28;20025;-77
2021/01/01 06:17:54;;;;;;;48.70;32.50;;;4.20;82.40;;;;;;5045472;28;20131;-76
2021/01/01 06:20:22;;;;;;;47.53;31.02;;;4.20;82.50;;;;;;5039841;28;20024;-76
2021/01/01 06:23:01;;;;;;;50.15;33.08;;;4.20;83.00;;;;;;5014488;28;20121;-76
2021/01/01 06:25:27;;;;;;;44.50;29.23;;;4.10;82.50;;;;;;5043415;28;20038;-76
2021/01/01 06:27:54;;;;;;;46.13;30.45;;;4.10;82.40;;;;;;5037416;28;20013;-76
2021/01/01 06:30:22;;;;;;;43.45;29.27;;;4.10;82.40;;;;;;5030525;28;20033;-76
2021/01/01 06:32:48;;;;;;;48.10;31.67;;;4.10;82.40;;;;;;5033770;28;20389;-76
2021/01/01 06:35:20;;;;;;;46.20;30.40;;;4.10;82.40;;;;;;5037166;28;20030;-76
2021/01/01 06:37:48;;;;;;;44.28;30.23;;;4.10;82.40;;;;;;5044346;28;20026;-76
2021/01/01 06:40:20;;;;;;;48.47;31.02;;;4.10;82.50;;;;;;5018410;28;20099;-77
2021/01/01 06:42:58;;;;;;;52.00;33.83;;;4.10;82.50;;;;;;5038810;28;20029;-76
2021/01/01 06:45:36;;;;;;;51.13;32.50;;;4.10;82.60;;;;;;5048889;28;20045;-76
2021/01/01 06:48:06;;;;;;;47.13;31.27;;;4.10;82.50;;;;;;5050473;28;20024;-76
2021/01/01 06:50:40;;;;;;;50.00;31.77;;;4.10;82.40;;;;;;5026789;28;20091;-75
2021/01/01 06:53:11;;;;;;;45.63;30.45;;;4.10;82.50;;;;;;5042281;28;20032;-79
2021/01/01 06:55:39;;;;;;;47.20;30.67;;;4.10;82.40;;;;;;5033679;28;20393;-75
2021/01/01 06:58:05;;;;;;;44.78;29.23;;;4.10;82.40;;;;;;5041599;28;20049;-77
2021/01/01 07:00:49;;;;;;;46.47;32.00;;;4.10;82.40;;;;;;5045417;28;20041;-75
2021/01/01 07:03:34;;;;;;;50.15;32.28;;;4.10;82.50;;;;;;5038312;28;20032;-76
2021/01/01 07:06:02;;;;;;;51.63;31.17;;;4.10;82.50;;;;;;5039254;28;20033;-75
2021/01/01 07:08:41;;;;;;;48.85;32.03;;;4.10;82.40;;;;;;5045699;28;20037;-75
2021/01/01 07:11:10;;;;;;;51.17;32.85;;;4.00;82.40;;;;;;5017274;28;20034;-77
2021/01/01 07:13:50;;;;;;;44.67;29.35;;;4.10;82.40;;;;;;5029067;28;20047;-76
2021/01/01 07:16:20;;;;;;;46.33;30.83;;;4.00;82.40;;;;;;5041173;28;20413;-76
2021/01/01 07:18:48;;;;;;;50.15;31.85;;;4.10;82.40;;;;;;5032402;28;20033;-75
2021/01/01 07:21:15;;;;;;;47.35;31.50;;;4.00;82.40;;;;;;5049130;28;20547;-76
2021/01/01 07:23:42;;;;;;;47.90;32.50;;;4.00;82.40;;;;;;5029723;28;20136;-76
2021/01/01 07:26:09;;;;;;;48.72;32.22;;;4.10;82.50;;;;;;5021244;28;20373;-79
2021/01/01 07:28:37;;;;;;;51.60;32.97;;;4.00;82.40;;;;;;5044112;28;20025;-77
2021/01/01 07:31:03;;;;;;;52.92;33.08;;;4.10;82.50;;;;;;5038555;28;20029;-76
2021/01/01 07:33:30;;;;;;;51.65;31.95;;;4.00;82.40;;;;;;5041204;28;20033;-79
2021/01/01 07:35:56;;;;;;;52.03;33.47;;;4.10;82.50;;;;;;5024222;28;20079;-76
2021/01/01 07:38:26;;;;;;;46.70;32.97;;;4.00;82.40;;;;;;5039856;28;20508;-77
2021/01/01 07:40:52;;;;;;;54.20;34.60;;;4.00;82.80;;;;;;5049966;28;20028;-76
2021/01/01 07:43:18;;;;;;;55.53;33.85;;;4.00;82.40;;;;;;5043797;28;20058;-76
2021/01/01 07:45:44;;;;;;;51.88;32.65;;;4.10;82.50;;;;;;5030741;28;20110;-76
2021/01/01 07:48:10;;;;;;;48.40;31.42;;;4.00;82.40;;;;;;5045483;28;20431;-78
2021/01/01 07:50:37;;;;;;;51.55;34.60;;;4.00;82.50;;;;;;5047783;28;20428;-76
2021/01/01 07:53:04;;;;;;;52.08;33.85;;;4.10;82.50;;;;;;5043870;28;20501;-77
2021/01/01 07:55:31;;;;;;;48.58;33.45;;;4.00;82.40;;;;;;5049532;28;20052;-76
2021/01/01 07:58:05;;;;;;;52.92;33.42;;;4.00;82.40;;;;;;5033775;28;20021;-75
2021/01/01 08:00:33;;;;;;;49.30;31.80;;;4.00;82.40;;;;;;5030882;28;20037;-76
2021/01/01 08:03:03;;;;;;;50.10;33.78;;;4.00;82.40;;;;;;5050414;28;20489;-77
2021/01/01 08:05:29;;;;;;;51.15;31.77;;;4.00;82.40;;;;;;5027451;28;20079;-76
2021/01/01 08:08:09;;;;;;;46.50;32.97;;;4.00;82.30;;;;;;5029571;28;20052;-77
2021/01/01 08:10:35;;;;;;;47.88;31.40;;;4.00;82.40;;;;;;5021096;28;20056;-75
2021/01/01 08:13:01;;;;;;;48.88;32.85;;;4.00;82.30;;;;;;5043241;28;20056;-76
2021/01/01 08:15:30;;;;;;;51.30;33.13;;;4.00;82.30;;;;;;5022610;28;20029;-77
2021/01/01 08:18:06;;;;;;;47.55;30.45;;;4.00;82.40;;;;;;5036073;28;20044;-77
2021/01/01 08:20:32;;;;;;;46.88;31.08;;;4.00;82.40;;;;;;5041123;28;20068;-76
2021/01/01 08:23:04;;;;;;;47.28;30.15;;;4.00;82.40;;;;;;5049376;28;20049;-80
2021/01/01 08:25:31;;;;;;;42.72;30.45;;;4.00;82.40;;;;;;5043487;28;20028;-76
2021/01/01 08:27:58;;;;;;;39.35;27.08;;;4.00;82.40;;;;;;5037200;28;20031;-75
2021/01/01 08:30:24;;;;;;;47.20;30.75;;;4.00;82.40;;;;;;5043762;28;20067;-76
2021/01/01 08:32:51;;;;;;;41.10;29.08;;;4.00;82.40;;;;;;5037830;28;20036;-76
2021/01/01 08:35:17;;;;;;;43.85;28.38;;;4.00;82.40;;;;;;5023978;28;20116;-76
2021/01/01 08:37:43;;;;;;;45.38;30.17;;;4.00;82.40;;;;;;5027089;28;20061;-76
2021/01/01 08:40:10;;;;;;;38.30;26.58;;;4.00;82.40;;;;;;5033906;28;20033;-76
2021/01/01 08:42:38;;;;;;;39.08;26.52;;;4.00;82.40;;;;;;5036139;28;20439;-75
2021/01/01 08:45:09;;;;;;;39.38;26.75;;;4.00;82.40;;;;;;5031287;28;20056;-78
2021/01/01 08:47:39;;;;;;;36.78;25.40;;;4.00;82.40;;;;;;5034703;28;20040;-76
2021/01/01 08:50:23;;;;;;;44.08;27.58;;;4.00;83.00;;;;;;5034006;28;20036;-76
2021/01/01 08:53:02;;;;;;;35.80;25.90;;;4.10;82.50;;;;;;5052867;28;20033;-76
2021/01/01 08:55:29;;;;;;;31.23;23.67;;;4.10;82.50;;;;;;5032742;28;20141;-76
2021/01/01 08:58:18;;;;;;;35.15;24.27;;;4.10;82.40;;;;;;5019255;28;20021;-76
2021/01/01 09:00:45;;;;;;;33.05;22.35;;;4.00;82.40;;;;;;5034084;28;20482;-76
2021/01/01 09:03:21;;;;;;;34.60;23.50;;;4.10;82.40;;;;;;5052898;28;20021;-77
2021/01/01 09:05:54;;;;;;;35.95;23.67;;;4.10;82.50;;;;;;5035841;28;20021;-77
2021/01/01 09:08:24;;;;;;;33.42;23.13;;;4.10;82.40;;;;;;5047972;28;20025;-76
2021/01/01 09:10:54;;;;;;;35.22;23.65;;;4.10;82.40;;;;;;5039405;28;20092;-76
2021/01/01 09:13:30;;;;;;;34.55;23.67;;;4.10;82.40;;;;;;5003098;28;20033;-77
2021/01/01 09:16:04;;;;;;;34.92;23.10;;;4.10;82.50;;;;;;5002476;28;20551;-76
2021/01/01 09:18:31;;;;;;;35.00;23.85;;;4.10;82.50;;;;;;5049584;28;20108;-75
2021/01/01 09:21:10;;;;;;;32.97;22.35;;;4.10;82.40;;;;;;5052457;28;20768;-76
2021/01/01 09:23:37;;;;;;;31.25;21.13;;;4.10;82.50;;;;;;5021547;28;20429;-76
2021/01/01 09:26:03;;;;;;;31.77;21.80;;;4.10;82.40;;;;;;5052269;28;20025;-77
2021/01/01 09:28:29;;;;;;;35.92;23.10;;;4.20;82.40;;;;;;5031830;28;20063;-78
2021/01/01 09:30:55;;;;;;;32.78;20.55;;;4.10;82.40;;;;;;5051299;28;20041;-76
2021/01/01 09:33:21;;;;;;;32.72;22.33;;;4.20;82.40;;;;;;5032210;28;20485;-79
2021/01/01 09:35:47;;;;;;;27.77;19.27;;;4.20;82.40;;;;;;5051276;28;20064;-75
2021/01/01 09:38:13;;;;;;;31.85;21.08;;;4.20;82.40;;;;;;5032385;28;20021;-76
2021/01/01 09:40:38;;;;;;;29.45;20.10;;;4.10;82.30;;;;;;5029020;28;20040;-76
2021/01/01 09:43:05;;;;;;;27.88;18.95;;;4.20;82.40;;;;;;5042595;28;20029;-76
2021/01/01 09:45:32;;;;;;;26.40;17.98;;;4.20;82.40;;;;;;5024243;28;20599;-76
2021/01/01 09:47:58;;;;;;;23.80;17.45;;;4.20;82.40;;;;;;5034991;28;20056;-76
2021/01/01 09:50:24;;;;;;;26.17;18.23;;;4.20;82.30;;;;;;5032985;28;20072;-76
2021/01/01 09:52:50;;;;;;;27.15;18.42;;;4.20;82.40;;;;;;5033480;28;20465;-76
2021/01/01 09:55:19;;;;;;;25.20;17.08;;;4.20;82.40;;;;;;5024086;28;20030;-77
2021/01/01 09:57:46;;;;;;;24.80;17.48;;;4.30;82.40;;;;;;5025109;28;20048;-76
2021/01/01 10:00:15;;;;;;;22.58;15.90;;;4.30;82.40;;;;;;5035427;28;20381;-77
2021/01/01 10:02:41;;;;;;;24.50;17.00;;;4.30;82.40;;;;;;5021636;28;20026;-77
2021/01/01 10:05:08;;;;;;;25.27;16.65;;;4.30;82.50;;;;;;5044293;28;20025;-77
2021/01/01 10:07:34;;;;;;;23.42;16.42;;;4.30;82.40;;;;;;5023744;28;20026;-77
2021/01/01 10:10:00;;;;;;;23.98;16.08;;;4.30;82.40;;;;;;5042016;28;20489;-76
2021/01/01 10:12:26;;;;;;;22.95;15.70;;;4.30;82.40;;;;;;5005546;28;20036;-77
2021/01/01 10:14:54;;;;;;;21.55;15.52;;;4.30;82.40;;;;;;5029702;28;20029;-76
2021/01/01 10:17:29;;;;;;;22.63;15.90;;;4.40;82.40;;;;;;5047315;28;20034;-77
2021/01/01 10:19:56;;;;;;;23.45;16.13;;;4.40;82.50;;;;;;5030853;28;20083;-76
2021/01/01 10:22:22;;;;;;;21.15;15.10;;;4.40;82.40;;;;;;5049227;28;20050;-77
2021/01/01 10:24:48;;;;;;;22.25;15.02;;;4.40;82.40;;;;;;5038121;28;20033;-79
2021/01/01 10:27:14;;;;;;;20.45;14.07;;;4.40;82.40;;;;;;5044146;28;20029;-77
2021/01/01 10:29:41;;;;;;;21.15;14.60;;;4.40;82.40;;;;;;5024947;28;20037;-77
2021/01/01 10:32:12;;;;;;;19.70;13.82;;;4.50;82.40;;;;;;5034409;28;20032;-76
2021/01/01 10:34:42;;;;;;;21.27;14.43;;;4.50;82.40;;;;;;5044440;28;20024;-77
2021/01/01 10:37:09;;;;;;;19.27;13.85;;;4.50;82.40;;;;;;5047320;28;20033;-76
2021/01/01 10:39:34;;;;;;;19.13;13.18;;;4.50;82.40;;;;;;5052407;28;20025;-76
2021/01/01 10:42:01;;;;;;;21.15;14.57;;;4.50;82.40;;;;;;5033843;28;20064;-76
2021/01/01 10:44:27;;;;;;;17.27;12.02;;;4.50;82.40;;;;;;5046729;28;20034;-78
2021/01/01 10:46:53;;;;;;;18.17;12.45;;;4.50;82.40;;;;;;5023887;28;20570;-76
2021/01/01 10:49:23;;;;;;;18.42;12.60;;;4.60;82.40;;;;;;5036211;28;20041;-75
2021/01/01 10:51:49;;;;;;;18.50;12.65;;;4.60;82.50;;;;;;5032299;28;20063;-76
2021/01/01 10:54:15;;;;;;;17.23;11.85;;;4.60;82.40;;;;;;5030760;28;20025;-76
2021/01/01 10:56:41;;;;;;;17.85;12.02;;;4.60;82.40;;;;;;5035328;28;20037;-76
2021/01/01 10:59:07;;;;;;;16.45;11.63;;;4.60;82.40;;;;;;5035468;28;20021;-77
2021/01/01 11:01:33;;;;;;;16.48;11.45;;;4.70;82.40;;;;;;5038722;28;20179;-77
2021/01/01 11:03:59;;;;;;;15.18;10.82;;;4.70;82.40;;;;;;5009296;28;20037;-75
2021/01/01 11:06:24;;;;;;;16.02;11.23;;;4.70;82.40;;;;;;5043941;28;20049;-75
2021/01/01 11:08:50;;;;;;;15.50;11.25;;;4.70;83.00;;;;;;5043584;28;20025;-75
2021/01/01 11:11:21;;;;;;;15.90;11.18;;;4.80;83.10;;;;;;5042811;28;20164;-76
2021/01/01 11:14:02;;;;;;;14.43;10.30;;;4.70;82.50;;;;;;5043789;28;20121;-76
2021/01/01 12:25:36;;;;;;;;;;;5.40;82.40;;;;;;4963588;28;20182;-77
2021/01/01 12:28:04;;;;;;;9.73;5.90;;;5.50;82.40;;;;;;5033681;28;19908;-76
2021/01/01 12:30:31;;;;;;;10.05;6.82;;;5.50;82.30;;;;;;5049142;28;20488;-77
2021/01/01 12:32:59;;;;;;;8.35;6.00;;;5.50;82.40;;;;;;5045442;28;20017;-77
2021/01/01 12:35:26;;;;;;;9.90;6.10;;;5.50;82.40;;;;;;5049354;28;20082;-78
2021/01/01 12:38:03;;;;;;;8.52;5.68;;;5.50;82.50;;;;;;5038392;28;20044;-78
2021/01/01 12:40:30;;;;;;;9.10;5.90;;;5.60;82.60;;;;;;5041033;28;20529;-78
2021/01/01 12:42:56;;;;;;;7.90;5.55;;;5.60;82.50;;;;;;5045446;28;20037;-79
2021/01/01 12:45:22;;;;;;;9.20;6.03;;;5.60;82.50;;;;;;5031915;28;20025;-80
2021/01/01 12:47:50;;;;;;;7.93;5.68;;;5.70;82.60;;;;;;5019693;28;20129;-77
2021/01/01 12:50:16;;;;;;;10.10;5.28;;;5.70;82.60;;;;;;5050973;28;20029;-77
2021/01/01 12:52:59;;;;;;;8.15;5.35;;;5.70;82.50;;;;;;5011627;28;20577;-76
2021/01/01 12:55:27;;;;;;;8.48;5.93;;;5.70;82.60;;;;;;5041727;28;20036;-77
2021/01/01 12:57:53;;;;;;;7.68;4.93;;;5.80;82.60;;;;;;5030369;28;20076;-77
2021/01/01 13:00:19;;;;;;;7.60;5.20;;;5.80;82.50;;;;;;5029537;28;20032;-79
2021/01/01 13:02:45;;;;;;;8.23;5.45;;;5.90;82.60;;;;;;5035444;28;20083;-78
2021/01/01 13:05:12;;;;;;;8.23;5.45;;;5.90;82.60;;;;;;5048240;28;20033;-78
2021/01/01 13:07:38;;;;;;;7.78;5.65;;;5.90;82.60;;;;;;5038477;28;20014;-77
2021/01/01 13:10:06;;;;;;;8.27;5.80;;;5.90;82.60;;;;;;5029129;28;20037;-77
2021/01/01 13:12:32;;;;;;;8.65;5.55;;;5.90;82.60;;;;;;5043133;28;20079;-77
2021/01/01 13:14:57;;;;;;;6.72;4.70;;;6.00;82.60;;;;;;5047923;28;20056;-79
2021/01/01 13:17:23;;;;;;;8.35;5.75;;;6.00;82.50;;;;;;5045468;28;20061;-76
2021/01/01 13:19:49;;;;;;;7.32;5.20;;;6.00;82.50;;;;;;5030499;28;20033;-75
2021/01/01 13:22:14;;;;;;;7.55;5.00;;;6.10;82.50;;;;;;5003927;28;20056;-76
2021/01/01 13:24:40;;;;;;;7.88;5.43;;;6.10;82.50;;;;;;5015497;28;20057;-76
2021/01/01 13:27:06;;;;;;;8.00;5.28;;;6.10;82.50;;;;;;5046065;28;20091;-78
2021/01/01 13:29:32;;;;;;;7.90;5.53;;;6.10;82.40;;;;;;5043193;28;20029;-77
2021/01/01 13:31:57;;;;;;;7.90;5.13;;;6.20;82.40;;;;;;5029885;28;20029;-78
2021/01/01 13:34:23;;;;;;;7.00;4.68;;;6.20;82.40;;;;;;5028291;28;20594;-76
2021/01/01 13:36:54;;;;;;;6.78;4.78;;;6.20;82.40;;;;;;5032947;28;20029;-76
2021/01/01 13:39:20;;;;;;;8.05;5.15;;;6.30;82.40;;;;;;5051734;28;20056;-76
2021/01/01 13:41:46;;;;;;;6.50;4.68;;;6.30;82.40;;;;;;5050077;28;20118;-77
2021/01/01 13:44:12;;;;;;;5.97;4.45;;;6.30;82.40;;;;;;5018878;28;20082;-77
2021/01/01 13:46:37;;;;;;;6.07;4.45;;;6.30;82.40;;;;;;5051123;28;20056;-76
2021/01/01 13:49:05;;;;;;;7.57;5.35;;;6.30;82.40;;;;;;5035308;28;20493;-76
2021/01/01 13:51:37;;;;;;;7.75;5.05;;;6.40;82.40;;;;;;5043254;28;20555;-76
2021/01/01 13:54:05;;;;;;;7.25;4.70;;;6.40;82.40;;;;;;5034087;28;20714;-77
2021/01/01 13:56:30;;;;;;;7.28;5.03;;;6.40;82.30;;;;;;5052220;28;20082;-77